This is the latest recevied weather packets stored in our database for station/object SQ5BUJ-13. If no packets are shown the sender has not sent any weather packets the latest 1 day(s).
| Time | Temp. | Humidity | Pressure | Rain* | Wind** | Luminosity | Snow |
|---|---|---|---|---|---|---|---|
| 1778094711 | 21.67° C | 46% | 1005.3 hPa | - | - | - | - |
| 1778093186 | 21.67° C | 46% | 1005.3 hPa | - | - | - | - |
| 1778063746 | 22.78° C | 38% | 1005 hPa | - | - | - | - |
| 1778062059 | 22.22° C | 35% | 1005 hPa | - | - | - | - |
| 1778060596 | 22.22° C | 35% | 1005 hPa | - | - | - | - |
| 1778058956 | 22.22° C | 35% | 1005 hPa | - | - | - | - |
| 1778057427 | 22.22° C | 35% | 1004.8 hPa | - | - | - | - |
| 1778055831 | 22.22° C | 35% | 1004.8 hPa | - | - | - | - |
| 1778054206 | 20.56° C | 43% | 1005.3 hPa | - | - | - | - |
| 1778052686 | 20.56° C | 43% | 1005.3 hPa | - | - | - | - |
| 1778051216 | 16.67° C | 58% | 1005.8 hPa | - | - | - | - |
| 1778047876 | 12.78° C | 84% | 1006.1 hPa | - | - | - | - |
| 1778046136 | 12.78° C | 84% | 1006.1 hPa | - | - | - | - |
| 1778044496 | 12.78° C | 84% | 1006.1 hPa | - | - | - | - |
| 1778043010 | 12.22° C | 88% | 1006.1 hPa | - | - | - | - |
| 1778041442 | 12.22° C | 88% | 1006.1 hPa | - | - | - | - |
| 1778039846 | 11.11° C | 87% | 1006.5 hPa | - | - | - | - |
| 1778038356 | 11.11° C | 87% | 1006.5 hPa | - | - | - | - |
| 1778036730 | 11.67° C | 85% | 1006.6 hPa | - | - | - | - |
| 1778035041 | 11.67° C | 85% | 1006.6 hPa | - | - | - | - |
| 1778033454 | 13.33° C | 85% | 1006.5 hPa | - | - | - | - |
| 1778031750 | 13.33° C | 85% | 1006.5 hPa | - | - | - | - |
| 1778030195 | 13.33° C | 85% | 1006.5 hPa | - | - | - | - |
| 1778026996 | 13.89° C | 81% | 1006.2 hPa | - | - | - | - |
| 1778022286 | 17.22° C | 71% | 1006.2 hPa | - | - | - | - |
* Rain since midnight (hover to see other rain measurements)
** Current wind speed in m/s (hover to see current wind gust speed)